Gordonville, Missouri
Current Conditions -  °F | °C
As of 9:19 AM on Thursday 30 Oct 2014 (Local Time) from KCGI Reporting Station
Haze Haze  
Wind Chill: 43°   Ceiling: Unl
Heat Index: 43°   Visibility: 4mi
Dew Point: 43°   Wind: 3mph
Humidity: 100%   Direction: 70°ENE
Pressure: 30.18"   Gusts: NA
Location:  37.31°N, 89.68°W
Report Text: KCGI 301419Z 07003KT 4SM BR CLR 06/06 A3018 RMK AO2 T00610061
Loading
Personal Weather Stations






























Interactive Weather Map
Tropical Storm Tracking
New forecast layout! Learn more

10-Day Weather Forecast

Advertisements
Track Severe Weather on mobile